createdAt,value
2018-03-29T00:00:33.767Z,4.20
2018-03-29T00:03:03.149Z,4.10
2018-03-29T00:05:32.187Z,4.00
2018-03-29T00:08:02.006Z,4.00
2018-03-29T00:10:32.928Z,3.90
2018-03-29T00:13:01.948Z,3.90
2018-03-29T00:15:31.109Z,3.90
2018-03-29T00:18:00.598Z,3.90
2018-03-29T00:20:29.653Z,3.90
2018-03-29T00:22:58.760Z,4.00
2018-03-29T00:25:28.053Z,4.10
2018-03-29T00:27:57.090Z,4.00
2018-03-29T00:30:26.130Z,4.00
2018-03-29T00:32:57.051Z,4.00
2018-03-29T00:35:27.025Z,3.90
2018-03-29T00:37:56.075Z,3.90
2018-03-29T00:40:25.362Z,3.90
2018-03-29T00:42:55.150Z,3.90
2018-03-29T00:45:24.180Z,3.90
2018-03-29T00:47:53.472Z,3.90
2018-03-29T00:50:22.583Z,4.00
2018-03-29T00:52:53.249Z,3.90
2018-03-29T00:55:22.573Z,4.00
2018-03-29T00:57:51.592Z,4.00
2018-03-29T01:00:21.416Z,3.90
2018-03-29T01:02:50.728Z,3.90
2018-03-29T01:05:19.835Z,3.90
2018-03-29T01:07:48.911Z,3.90
2018-03-29T01:10:18.274Z,4.00
2018-03-29T01:12:47.767Z,4.00
2018-03-29T01:15:16.829Z,4.00
2018-03-29T01:17:46.179Z,4.00
2018-03-29T01:20:16.017Z,4.00
2018-03-29T01:22:45.071Z,4.00
2018-03-29T01:25:14.419Z,4.00
2018-03-29T01:27:43.719Z,4.00
2018-03-29T01:30:12.775Z,4.00
2018-03-29T01:32:42.963Z,4.00
2018-03-29T01:35:12.033Z,4.00
2018-03-29T01:37:41.100Z,4.00
2018-03-29T01:40:11.419Z,4.00
2018-03-29T01:42:42.412Z,4.10
2018-03-29T01:45:11.492Z,4.00
2018-03-29T01:50:20.296Z,4.10
2018-03-29T01:52:50.458Z,4.10
2018-03-29T01:55:19.522Z,4.10
2018-03-29T01:57:48.555Z,4.10
2018-03-29T02:00:17.855Z,4.10
2018-03-29T02:02:47.660Z,4.10
2018-03-29T02:05:16.691Z,4.10
2018-03-29T02:07:46.892Z,4.10
2018-03-29T02:10:15.941Z,4.10
2018-03-29T02:12:45.011Z,4.20
2018-03-29T02:15:14.323Z,4.20
2018-03-29T02:17:43.383Z,4.20
2018-03-29T02:20:12.459Z,4.20
2018-03-29T02:22:42.029Z,4.20
2018-03-29T02:25:11.102Z,4.20
2018-03-29T02:27:40.911Z,4.20
2018-03-29T02:30:11.073Z,4.20
2018-03-29T02:32:40.063Z,4.30
2018-03-29T02:35:09.130Z,4.20
2018-03-29T02:37:38.436Z,4.20
2018-03-29T02:40:07.540Z,4.20
2018-03-29T02:42:36.579Z,4.20
2018-03-29T02:45:05.932Z,4.20
2018-03-29T02:47:34.954Z,4.30
2018-03-29T02:50:04.127Z,4.30
2018-03-29T02:52:33.763Z,4.30
2018-03-29T02:55:02.809Z,4.30
2018-03-29T02:57:31.975Z,4.30
2018-03-29T03:00:01.303Z,4.40
2018-03-29T03:02:31.096Z,4.30
2018-03-29T03:05:00.164Z,4.30
2018-03-29T03:07:29.535Z,4.40
2018-03-29T03:11:17.942Z,4.40
2018-03-29T03:13:48.122Z,4.40
2018-03-29T03:16:17.553Z,4.40
2018-03-29T03:18:46.586Z,4.40
2018-03-29T03:21:15.919Z,4.40
2018-03-29T03:23:44.989Z,4.40
2018-03-29T03:26:14.055Z,4.40
2018-03-29T03:28:44.223Z,4.40
2018-03-29T03:31:13.308Z,4.30
2018-03-29T03:33:42.355Z,4.50
2018-03-29T03:36:11.743Z,4.40
2018-03-29T03:38:40.871Z,4.30
2018-03-29T03:41:10.762Z,4.40
2018-03-29T03:43:39.772Z,4.30
2018-03-29T03:46:10.440Z,4.40
2018-03-29T03:48:39.779Z,4.30
2018-03-29T03:51:09.673Z,4.40
2018-03-29T03:53:38.760Z,4.30
2018-03-29T03:56:08.113Z,4.30
2018-03-29T03:58:38.012Z,4.30
2018-03-29T04:01:07.942Z,4.30
2018-03-29T04:03:50.475Z,4.30
2018-03-29T04:06:19.539Z,4.30
2018-03-29T04:08:49.310Z,4.20
2018-03-29T04:11:18.680Z,4.20
2018-03-29T04:13:47.715Z,4.20
2018-03-29T04:16:16.757Z,4.10
2018-03-29T04:18:46.884Z,4.10
2018-03-29T04:21:16.075Z,4.00
2018-03-29T04:23:45.107Z,4.00
2018-03-29T04:26:14.436Z,4.00
2018-03-29T04:28:44.178Z,4.00
2018-03-29T04:31:13.238Z,4.00
2018-03-29T04:33:42.635Z,4.00
2018-03-29T04:36:11.655Z,4.00
2018-03-29T04:38:41.579Z,3.90
2018-03-29T04:41:11.652Z,3.90
2018-03-29T04:43:40.731Z,3.90
2018-03-29T04:46:09.850Z,3.90
2018-03-29T04:48:39.249Z,3.80
2018-03-29T04:51:08.298Z,3.80
2018-03-29T04:53:37.415Z,3.80
2018-03-29T04:56:06.812Z,3.70
2018-03-29T04:58:35.903Z,3.70
2018-03-29T05:01:04.955Z,3.80
2018-03-29T05:03:35.136Z,3.70
2018-03-29T05:06:05.558Z,3.70
2018-03-29T05:08:34.594Z,3.80
2018-03-29T05:11:04.768Z,3.70
2018-03-29T05:13:33.847Z,3.70
2018-03-29T05:16:02.919Z,3.50
2018-03-29T05:18:33.825Z,3.50
2018-03-29T05:21:03.151Z,3.50
2018-03-29T05:23:32.993Z,3.40
2018-03-29T05:26:06.601Z,3.40
2018-03-29T05:28:35.701Z,3.40
2018-03-29T05:31:05.809Z,3.30
2018-03-29T05:33:34.867Z,3.30
2018-03-29T05:36:04.666Z,3.30
2018-03-29T05:38:34.799Z,3.30
2018-03-29T05:41:04.647Z,3.30
2018-03-29T05:43:33.687Z,3.30
2018-03-29T05:46:03.058Z,3.30
2018-03-29T05:48:32.119Z,3.30
2018-03-29T05:51:01.203Z,3.30
2018-03-29T05:53:31.343Z,3.30
2018-03-29T05:56:00.414Z,3.30
2018-03-29T05:58:30.533Z,3.40
2018-03-29T06:01:00.799Z,3.50
2018-03-29T06:03:29.868Z,3.50
2018-03-29T06:05:58.925Z,3.60
2018-03-29T06:08:29.059Z,3.90
2018-03-29T06:10:58.945Z,4.00
2018-03-29T06:13:27.956Z,4.00
2018-03-29T06:16:02.482Z,4.30
2018-03-29T06:18:32.574Z,4.40
2018-03-29T06:21:02.433Z,4.40
2018-03-29T06:23:31.780Z,4.50
2018-03-29T06:26:00.887Z,4.50
2018-03-29T06:28:29.916Z,4.50
2018-03-29T06:30:59.329Z,4.60
2018-03-29T06:33:28.347Z,4.70
2018-03-29T06:35:57.442Z,4.90
2018-03-29T06:38:26.794Z,5.20
2018-03-29T06:40:56.644Z,5.50
2018-03-29T06:43:25.771Z,5.50
2018-03-29T06:45:55.095Z,5.70
2018-03-29T06:48:24.903Z,6.00
2018-03-29T06:50:54.751Z,6.00
2018-03-29T06:53:24.117Z,6.20
2018-03-29T06:55:53.238Z,6.30
2018-03-29T06:58:22.317Z,6.30
2018-03-29T07:00:52.508Z,6.50
2018-03-29T07:03:21.585Z,6.50
2018-03-29T07:05:50.618Z,6.70
2018-03-29T07:08:20.756Z,7.00
2018-03-29T07:10:50.588Z,7.00
2018-03-29T07:13:20.476Z,7.10
2018-03-29T07:15:50.608Z,7.20
2018-03-29T07:18:19.712Z,7.20
2018-03-29T07:20:48.751Z,7.30
2018-03-29T07:23:18.061Z,7.40
2018-03-29T07:25:47.152Z,7.30
2018-03-29T07:28:16.231Z,7.10
2018-03-29T07:30:45.570Z,7.20
2018-03-29T07:33:15.390Z,7.50
2018-03-29T07:35:45.234Z,7.50
2018-03-29T07:38:14.567Z,7.50
2018-03-29T07:40:43.643Z,7.50
2018-03-29T07:43:12.770Z,7.40
2018-03-29T07:45:41.850Z,7.40
2018-03-29T07:48:10.862Z,7.30
2018-03-29T07:50:40.127Z,7.40
2018-03-29T07:53:09.214Z,7.40
2018-03-29T07:55:38.271Z,7.40
2018-03-29T07:58:08.126Z,7.30
2018-03-29T08:00:37.168Z,7.40
2018-03-29T08:03:06.979Z,7.40
2018-03-29T08:05:36.492Z,7.40
2018-03-29T08:08:06.331Z,7.50
2018-03-29T08:10:35.345Z,7.50
2018-03-29T08:13:04.715Z,7.70
2018-03-29T08:15:33.770Z,8.00
2018-03-29T08:18:02.952Z,8.30
2018-03-29T08:20:32.348Z,8.40
2018-03-29T08:23:01.397Z,8.40
2018-03-29T08:25:30.475Z,8.70
2018-03-29T08:28:00.579Z,8.60
2018-03-29T08:30:29.728Z,8.60
2018-03-29T08:32:58.764Z,8.50
2018-03-29T08:35:28.115Z,8.40
2018-03-29T08:37:57.889Z,8.50
2018-03-29T08:40:27.659Z,8.50
2018-03-29T08:42:57.034Z,8.40
2018-03-29T08:45:26.058Z,8.40
2018-03-29T08:47:55.144Z,8.10
2018-03-29T08:50:24.551Z,8.10
2018-03-29T08:52:53.627Z,8.20
2018-03-29T08:55:22.744Z,8.30
2018-03-29T08:57:52.180Z,8.30
2018-03-29T09:00:21.246Z,8.40
2018-03-29T09:02:50.283Z,8.60
2018-03-29T09:05:20.430Z,8.90
2018-03-29T09:07:49.490Z,8.90
2018-03-29T09:10:19.287Z,9.20
2018-03-29T09:12:48.914Z,9.20
2018-03-29T09:15:18.718Z,9.10
2018-03-29T09:17:48.611Z,9.20
2018-03-29T09:20:17.926Z,9.20
2018-03-29T09:22:48.418Z,9.60
2018-03-29T09:25:17.779Z,9.60
2018-03-29T09:27:47.127Z,9.70
2018-03-29T09:30:16.185Z,9.80
2018-03-29T09:32:45.198Z,9.80
2018-03-29T09:35:14.678Z,9.60
2018-03-29T09:37:54.006Z,9.80
2018-03-29T09:40:23.143Z,9.80
2018-03-29T09:42:52.511Z,9.70
2018-03-29T09:45:21.575Z,9.80
2018-03-29T09:47:51.419Z,9.70
2018-03-29T09:50:20.758Z,9.60
2018-03-29T09:52:52.083Z,9.50
2018-03-29T09:55:21.127Z,9.50
2018-03-29T09:57:51.351Z,10.20
2018-03-29T10:00:25.359Z,10.70
2018-03-29T10:02:55.206Z,10.70
2018-03-29T10:05:28.722Z,10.70
2018-03-29T10:07:58.251Z,11.00
2018-03-29T10:10:27.766Z,11.00
2018-03-29T10:12:56.990Z,11.00
2018-03-29T10:15:27.107Z,10.70
2018-03-29T10:17:57.275Z,10.60
2018-03-29T10:20:28.018Z,10.60
2018-03-29T10:22:57.343Z,10.60
2018-03-29T10:25:27.506Z,11.10
2018-03-29T10:27:56.558Z,11.10
2018-03-29T10:30:25.657Z,11.30
2018-03-29T10:32:56.762Z,11.60
2018-03-29T10:35:25.874Z,11.60
2018-03-29T10:37:54.922Z,11.80
2018-03-29T10:40:24.331Z,11.60
2018-03-29T10:42:53.391Z,11.60
2018-03-29T10:45:23.176Z,10.90
2018-03-29T10:47:52.526Z,10.90
2018-03-29T10:50:21.626Z,10.70
2018-03-29T10:52:51.499Z,10.60
2018-03-29T10:55:20.833Z,10.60
2018-03-29T10:57:49.929Z,10.50
2018-03-29T11:00:19.767Z,10.50
2018-03-29T11:02:49.088Z,10.50
2018-03-29T11:05:18.179Z,10.50
2018-03-29T11:07:47.219Z,10.50
2018-03-29T11:10:17.348Z,10.40
2018-03-29T11:12:47.174Z,10.60
2018-03-29T11:15:16.227Z,10.60
2018-03-29T11:17:45.642Z,10.90
2018-03-29T11:20:15.482Z,11.60
2018-03-29T11:22:44.531Z,11.60
2018-03-29T11:25:13.913Z,12.00
2018-03-29T11:27:43.017Z,12.40
2018-03-29T11:30:12.055Z,12.80
2018-03-29T11:32:41.419Z,13.10
2018-03-29T11:35:10.520Z,13.20
2018-03-29T11:37:41.080Z,13.10
2018-03-29T11:40:10.373Z,12.80
2018-03-29T11:42:39.425Z,12.40
2018-03-29T11:45:08.519Z,11.90
2018-03-29T11:47:37.878Z,12.00
2018-03-29T11:50:06.951Z,12.00
2018-03-29T11:52:36.791Z,12.20
2018-03-29T11:55:06.191Z,12.20
2018-03-29T11:57:35.244Z,12.20
2018-03-29T12:00:04.591Z,12.10
2018-03-29T12:02:33.703Z,12.20
2018-03-29T12:05:02.773Z,12.30
2018-03-29T12:07:32.371Z,12.30
2018-03-29T12:10:01.761Z,12.10
2018-03-29T12:12:30.834Z,12.20
2018-03-29T12:15:00.698Z,11.80
2018-03-29T12:17:30.174Z,11.80
2018-03-29T12:19:59.978Z,11.50
2018-03-29T12:22:29.815Z,11.80
2018-03-29T12:24:59.212Z,11.80
2018-03-29T12:27:28.303Z,11.40
2018-03-29T12:29:57.395Z,11.40
2018-03-29T12:32:26.740Z,11.30
2018-03-29T12:34:55.845Z,11.00
2018-03-29T12:37:24.892Z,10.10
2018-03-29T12:39:55.276Z,9.90
2018-03-29T12:42:24.367Z,9.80
2018-03-29T12:44:53.464Z,10.10
2018-03-29T12:47:22.775Z,10.40
2018-03-29T12:49:52.630Z,10.80
2018-03-29T12:52:21.990Z,10.80
2018-03-29T12:55:59.283Z,11.10
2018-03-29T12:58:29.400Z,11.40
2018-03-29T13:01:00.400Z,11.20
2018-03-29T13:03:29.762Z,11.20
2018-03-29T13:05:59.117Z,11.40
2018-03-29T13:08:28.125Z,11.50
2018-03-29T13:10:57.334Z,11.70
2018-03-29T13:13:26.637Z,11.70
2018-03-29T13:15:56.466Z,12.00
2018-03-29T13:18:26.283Z,12.30
2018-03-29T13:20:56.371Z,12.30
2018-03-29T13:23:25.383Z,12.40
2018-03-29T13:25:55.221Z,13.00
2018-03-29T13:28:24.558Z,13.00
2018-03-29T13:30:53.780Z,13.10
2018-03-29T13:33:23.554Z,13.30
2018-03-29T13:35:53.055Z,13.00
2018-03-29T13:38:22.219Z,12.80
2018-03-29T13:40:51.300Z,12.30
2018-03-29T13:43:23.143Z,12.00
2018-03-29T13:45:52.305Z,12.00
2018-03-29T13:48:21.428Z,12.10
2018-03-29T13:50:51.102Z,11.90
2018-03-29T13:53:20.214Z,11.90
2018-03-29T13:55:49.274Z,11.90
2018-03-29T13:58:29.614Z,12.10
2018-03-29T14:00:58.757Z,12.30
2018-03-29T14:03:39.074Z,12.40
2018-03-29T14:06:08.180Z,12.60
2018-03-29T14:08:37.247Z,12.60
2018-03-29T14:11:07.132Z,12.70
2018-03-29T14:13:36.245Z,12.70
2018-03-29T14:16:06.194Z,12.50
2018-03-29T14:18:35.216Z,12.50
2018-03-29T14:21:04.580Z,12.50
2018-03-29T14:23:33.688Z,12.50
2018-03-29T14:26:02.776Z,12.80
2018-03-29T14:28:32.132Z,13.10
2018-03-29T14:31:01.309Z,13.30
2018-03-29T14:33:31.327Z,12.90
2018-03-29T14:36:00.444Z,12.50
2018-03-29T14:38:30.339Z,11.60
2018-03-29T14:40:59.485Z,11.60
2018-03-29T14:43:29.692Z,11.30
2018-03-29T14:45:59.587Z,10.70
2018-03-29T14:48:28.898Z,10.70
2018-03-29T14:50:58.247Z,10.90
2018-03-29T14:53:28.516Z,11.20
2018-03-29T14:55:57.613Z,11.50
2018-03-29T14:58:27.003Z,11.80
2018-03-29T15:00:56.110Z,12.20
2018-03-29T15:03:25.215Z,12.00
2018-03-29T15:05:55.355Z,11.70
2018-03-29T15:08:24.367Z,11.80
2018-03-29T15:10:53.506Z,11.70
2018-03-29T15:13:22.912Z,11.40
2018-03-29T15:15:51.983Z,11.40
2018-03-29T15:18:21.111Z,11.40
2018-03-29T15:20:51.510Z,11.80
2018-03-29T15:23:20.592Z,11.70
2018-03-29T15:25:49.736Z,11.80
2018-03-29T15:28:20.231Z,11.80
2018-03-29T15:30:49.259Z,11.80
2018-03-29T15:33:19.134Z,11.60
2018-03-29T15:35:48.499Z,11.60
2018-03-29T15:38:17.563Z,11.60
2018-03-29T15:40:47.443Z,12.70
2018-03-29T15:43:16.773Z,12.60
2018-03-29T15:45:47.061Z,13.30
2018-03-29T15:48:16.123Z,13.30
2018-03-29T15:50:45.589Z,13.50
2018-03-29T15:53:14.619Z,13.50
2018-03-29T15:55:43.687Z,13.40
2018-03-29T15:58:13.824Z,13.80
2018-03-29T16:00:42.923Z,13.80
2018-03-29T16:03:12.047Z,14.40
2018-03-29T16:05:41.135Z,14.40
2018-03-29T16:08:10.635Z,13.90
2018-03-29T16:10:39.731Z,13.50
2018-03-29T16:13:09.060Z,13.00
2018-03-29T16:15:38.104Z,12.70
2018-03-29T16:18:07.234Z,12.40
2018-03-29T16:20:36.622Z,12.00
2018-03-29T16:23:05.771Z,11.60
2018-03-29T16:25:35.591Z,10.80
2018-03-29T16:28:05.758Z,10.50
2018-03-29T16:30:34.851Z,10.50
2018-03-29T16:33:03.909Z,10.30
2018-03-29T16:35:34.760Z,10.00
2018-03-29T16:38:03.864Z,10.10
2018-03-29T16:40:32.991Z,10.10
2018-03-29T16:43:02.542Z,9.80
2018-03-29T16:45:32.464Z,9.50
2018-03-29T16:48:01.533Z,9.40
2018-03-29T16:53:11.454Z,9.20
2018-03-29T16:55:40.768Z,9.10
2018-03-29T16:58:09.878Z,8.90
2018-03-29T17:00:39.779Z,8.80
2018-03-29T17:03:09.116Z,8.70
2018-03-29T17:05:38.978Z,8.50
2018-03-29T17:08:08.551Z,8.50
2018-03-29T17:10:37.947Z,8.40
2018-03-29T17:13:07.781Z,8.20
2018-03-29T17:15:36.943Z,8.20
2018-03-29T17:18:06.813Z,7.90
2018-03-29T17:20:35.957Z,7.90
2018-03-29T17:23:05.337Z,7.90
2018-03-29T17:25:34.436Z,7.70
2018-03-29T17:28:03.723Z,7.60
2018-03-29T17:30:33.156Z,7.40
2018-03-29T17:33:03.456Z,7.10
2018-03-29T17:35:32.532Z,7.10
2018-03-29T17:38:01.969Z,7.00
2018-03-29T17:40:32.766Z,6.90
2018-03-29T17:43:01.827Z,6.80
2018-03-29T17:45:31.201Z,6.80
2018-03-29T17:48:01.107Z,6.60
2018-03-29T17:50:31.396Z,6.50
2018-03-29T17:53:01.044Z,6.50
2018-03-29T17:55:31.004Z,6.30
2018-03-29T17:58:00.114Z,6.30
2018-03-29T18:00:29.502Z,6.30
2018-03-29T18:02:58.546Z,6.20
2018-03-29T18:05:28.499Z,6.10
2018-03-29T18:07:57.851Z,6.00
2018-03-29T18:10:26.986Z,5.90
2018-03-29T18:12:57.343Z,5.70
2018-03-29T18:15:26.729Z,5.70
2018-03-29T18:17:55.928Z,5.70
2018-03-29T18:20:25.108Z,5.70
2018-03-29T18:22:55.788Z,5.60
2018-03-29T18:25:24.839Z,5.60
2018-03-29T18:27:54.365Z,5.60
2018-03-29T18:30:23.812Z,5.50
2018-03-29T18:32:52.863Z,5.40
2018-03-29T18:35:21.944Z,5.30
2018-03-29T18:37:52.927Z,5.30
2018-03-29T18:40:22.280Z,5.20
2018-03-29T18:42:51.309Z,5.20
2018-03-29T18:45:20.749Z,5.20
2018-03-29T18:47:50.613Z,5.10
2018-03-29T18:50:19.831Z,5.10
2018-03-29T18:52:50.523Z,5.10
2018-03-29T18:55:22.896Z,5.00
2018-03-29T18:57:52.237Z,5.00
2018-03-29T19:00:30.986Z,5.00
2018-03-29T19:03:00.876Z,4.90
2018-03-29T19:05:31.084Z,4.90
2018-03-29T19:08:00.131Z,4.90
2018-03-29T19:10:30.129Z,4.90
2018-03-29T19:13:00.946Z,4.90
2018-03-29T19:15:30.076Z,4.90
2018-03-29T19:18:00.200Z,4.90
2018-03-29T19:20:29.601Z,4.90
2018-03-29T19:22:59.240Z,4.80
2018-03-29T19:25:28.359Z,4.70
2018-03-29T19:27:57.660Z,4.70
2018-03-29T19:30:28.715Z,4.60
2018-03-29T19:32:58.573Z,4.50
2018-03-29T19:35:27.607Z,4.40
2018-03-29T19:37:56.737Z,4.40
2018-03-29T19:40:26.912Z,4.20
2018-03-29T19:42:55.939Z,4.20
2018-03-29T19:45:25.772Z,4.10
2018-03-29T19:47:55.218Z,4.10
2018-03-29T19:50:24.449Z,4.10
2018-03-29T19:52:54.631Z,4.00
2018-03-29T19:55:24.697Z,4.00
2018-03-29T19:57:54.564Z,4.00
2018-03-29T20:00:23.901Z,3.90
2018-03-29T20:02:53.947Z,3.90
2018-03-29T20:05:23.223Z,3.90
2018-03-29T20:08:07.788Z,3.70
2018-03-29T20:10:37.716Z,3.70
2018-03-29T20:13:07.043Z,3.70
2018-03-29T20:15:36.138Z,3.70
2018-03-29T20:18:05.291Z,3.70
2018-03-29T20:20:35.980Z,3.50
2018-03-29T20:23:05.166Z,3.50
2018-03-29T20:25:34.224Z,3.40
2018-03-29T20:28:03.610Z,3.30
2018-03-29T20:30:34.764Z,3.00
2018-03-29T20:33:17.583Z,3.10
2018-03-29T20:35:47.978Z,3.00
2018-03-29T20:38:17.081Z,2.90
2018-03-29T20:40:47.815Z,2.70
2018-03-29T20:43:18.020Z,2.70
2018-03-29T20:45:47.105Z,2.60
2018-03-29T20:48:16.144Z,2.60
2018-03-29T20:50:45.515Z,2.50
2018-03-29T20:53:14.703Z,2.40
2018-03-29T20:55:43.774Z,2.40
2018-03-29T20:58:13.674Z,2.40
2018-03-29T21:00:42.772Z,2.40
2018-03-29T21:03:11.938Z,2.40
2018-03-29T21:05:42.463Z,2.30
2018-03-29T21:08:12.686Z,2.20
2018-03-29T21:10:42.595Z,2.20
2018-03-29T21:13:12.803Z,2.20
2018-03-29T21:15:42.602Z,2.20
2018-03-29T21:18:16.163Z,2.10
2018-03-29T21:20:45.602Z,2.10
2018-03-29T21:23:14.676Z,2.10
2018-03-29T21:25:44.237Z,2.10
2018-03-29T21:28:14.402Z,2.20
2018-03-29T21:30:43.473Z,2.20
2018-03-29T21:33:12.691Z,2.30
2018-03-29T21:35:42.121Z,2.50
2018-03-29T21:38:11.172Z,2.80
2018-03-29T21:40:42.353Z,2.90
2018-03-29T21:43:11.792Z,3.10
2018-03-29T21:45:40.981Z,3.20
2018-03-29T21:48:11.562Z,3.40
2018-03-29T21:50:40.959Z,3.40
2018-03-29T21:53:10.772Z,3.10
2018-03-29T21:55:40.434Z,3.10
2018-03-29T21:58:10.784Z,2.80
2018-03-29T22:00:39.874Z,2.80
2018-03-29T22:03:08.939Z,2.60
2018-03-29T22:05:39.086Z,2.50
2018-03-29T22:08:08.125Z,2.50
2018-03-29T22:10:37.273Z,2.50
2018-03-29T22:13:06.672Z,2.40
2018-03-29T22:15:35.843Z,2.40
2018-03-29T22:18:04.965Z,2.40
2018-03-29T22:20:34.580Z,2.30
2018-03-29T22:23:03.670Z,2.30
2018-03-29T22:25:33.050Z,2.30
2018-03-29T22:28:02.903Z,2.40
2018-03-29T22:30:32.080Z,2.30
2018-03-29T22:33:01.387Z,2.40
2018-03-29T22:35:30.438Z,2.40
2018-03-29T22:37:59.503Z,2.50
2018-03-29T22:40:28.804Z,2.50
2018-03-29T22:42:57.866Z,2.50
2018-03-29T22:45:27.031Z,2.50
2018-03-29T22:47:56.503Z,2.50
2018-03-29T22:50:26.551Z,2.60
2018-03-29T22:52:55.585Z,2.60
2018-03-29T22:55:24.904Z,2.60
2018-03-29T22:57:53.916Z,2.60
2018-03-29T23:00:28.805Z,2.60
2018-03-29T23:02:58.130Z,2.60
2018-03-29T23:05:27.155Z,2.70
2018-03-29T23:07:56.217Z,2.70
2018-03-29T23:10:26.004Z,2.80
2018-03-29T23:12:55.088Z,2.80
2018-03-29T23:15:25.831Z,2.90
2018-03-29T23:17:55.182Z,2.80
2018-03-29T23:20:24.357Z,2.90
2018-03-29T23:22:53.486Z,3.00
2018-03-29T23:25:22.857Z,3.00
2018-03-29T23:27:51.896Z,3.10
2018-03-29T23:30:21.690Z,3.10
2018-03-29T23:32:51.017Z,3.10
2018-03-29T23:35:20.859Z,3.30
2018-03-29T23:37:49.896Z,3.20
2018-03-29T23:40:19.233Z,3.20
2018-03-29T23:42:48.252Z,3.30
2018-03-29T23:45:17.251Z,3.40
2018-03-29T23:47:46.719Z,3.50
2018-03-29T23:50:15.858Z,3.60
2018-03-29T23:52:44.893Z,3.70
2018-03-29T23:55:15.044Z,3.90
2018-03-29T23:57:44.122Z,3.80
